createdAt,value
2017-08-13T00:01:12.845Z,94.30
2017-08-13T00:03:40.857Z,94.30
2017-08-13T00:06:08.421Z,94.30
2017-08-13T00:08:36.007Z,94.30
2017-08-13T00:11:04.301Z,94.30
2017-08-13T00:13:31.888Z,94.30
2017-08-13T00:15:59.463Z,94.30
2017-08-13T00:18:27.498Z,94.30
2017-08-13T00:20:55.093Z,94.30
2017-08-13T00:23:22.686Z,94.30
2017-08-13T00:25:50.264Z,94.20
2017-08-13T00:28:18.148Z,94.30
2017-08-13T00:30:45.708Z,94.30
2017-08-13T00:33:13.275Z,94.20
2017-08-13T00:35:41.078Z,94.20
2017-08-13T00:38:08.690Z,94.20
2017-08-13T00:40:36.245Z,94.20
2017-08-13T00:43:03.878Z,94.20
2017-08-13T00:45:31.444Z,94.20
2017-08-13T00:47:59.087Z,94.20
2017-08-13T00:50:26.660Z,94.20
2017-08-13T00:52:54.230Z,94.10
2017-08-13T00:55:22.438Z,94.20
2017-08-13T00:57:50.000Z,94.20
2017-08-13T01:00:17.632Z,94.20
2017-08-13T01:02:45.303Z,94.20
2017-08-13T01:05:13.205Z,94.20
2017-08-13T01:07:40.766Z,94.20
2017-08-13T01:10:08.334Z,94.20
2017-08-13T01:12:38.135Z,94.20
2017-08-13T01:15:06.482Z,94.40
2017-08-13T01:17:34.055Z,94.20
2017-08-13T01:20:01.966Z,94.20
2017-08-13T01:22:29.598Z,94.30
2017-08-13T01:24:57.182Z,94.30
2017-08-13T01:27:24.959Z,94.60
2017-08-13T01:29:52.585Z,94.30
2017-08-13T01:32:20.152Z,94.30
2017-08-13T01:34:47.758Z,94.30
2017-08-13T01:37:15.359Z,94.30
2017-08-13T01:39:42.946Z,94.30
2017-08-13T01:42:10.691Z,94.30
2017-08-13T01:44:38.262Z,94.30
2017-08-13T01:47:06.007Z,94.30
2017-08-13T01:49:33.563Z,94.30
2017-08-13T01:52:01.239Z,94.40
2017-08-13T01:54:28.849Z,94.40
2017-08-13T01:56:56.549Z,94.40
2017-08-13T01:59:24.162Z,94.40
2017-08-13T02:01:51.718Z,94.40
2017-08-13T02:04:19.378Z,94.40
2017-08-13T02:06:46.944Z,94.40
2017-08-13T02:09:14.875Z,94.30
2017-08-13T02:11:42.438Z,94.30
2017-08-13T02:14:10.165Z,94.40
2017-08-13T02:16:37.774Z,94.40
2017-08-13T02:19:05.359Z,94.40
2017-08-13T02:21:33.469Z,94.40
2017-08-13T02:24:01.029Z,94.40
2017-08-13T02:26:28.593Z,94.40
2017-08-13T02:28:56.205Z,94.40
2017-08-13T02:31:24.268Z,94.40
2017-08-13T02:33:51.841Z,94.30
2017-08-13T02:36:19.401Z,94.30
2017-08-13T02:38:47.065Z,94.30
2017-08-13T02:41:14.627Z,94.30
2017-08-13T02:43:42.242Z,94.30
2017-08-13T02:46:09.793Z,94.20
2017-08-13T02:48:37.373Z,94.20
2017-08-13T02:51:05.098Z,94.10
2017-08-13T02:53:32.750Z,94.10
2017-08-13T02:56:00.325Z,94.10
2017-08-13T02:58:28.085Z,94.10
2017-08-13T03:00:55.650Z,94.10
2017-08-13T03:03:23.226Z,94.10
2017-08-13T03:05:51.100Z,94.10
2017-08-13T03:08:18.657Z,94.00
2017-08-13T03:10:46.212Z,94.00
2017-08-13T03:13:13.960Z,94.00
2017-08-13T03:15:41.581Z,94.30
2017-08-13T03:18:09.194Z,94.00
2017-08-13T03:20:36.749Z,94.00
2017-08-13T03:23:04.349Z,94.00
2017-08-13T03:25:32.406Z,94.00
2017-08-13T03:27:59.982Z,94.00
2017-08-13T03:30:28.669Z,94.10
2017-08-13T03:32:56.234Z,94.10
2017-08-13T03:35:25.177Z,94.10
2017-08-13T03:37:52.781Z,94.00
2017-08-13T03:40:21.113Z,94.00
2017-08-13T03:42:48.734Z,94.00
2017-08-13T03:45:16.353Z,94.00
2017-08-13T03:47:44.326Z,94.00
2017-08-13T03:50:11.885Z,94.00
2017-08-13T03:52:39.505Z,93.90
2017-08-13T03:55:07.083Z,94.00
2017-08-13T03:57:35.294Z,94.00
2017-08-13T04:00:02.843Z,94.00
2017-08-13T04:02:30.412Z,94.00
2017-08-13T04:04:58.833Z,94.00
2017-08-13T04:07:26.411Z,94.00
2017-08-13T04:09:53.978Z,94.00
2017-08-13T04:12:23.307Z,94.00
2017-08-13T04:14:50.855Z,94.00
2017-08-13T04:17:18.421Z,94.00
2017-08-13T04:19:46.024Z,94.00
2017-08-13T04:22:13.582Z,94.00
2017-08-13T04:24:42.657Z,94.00
2017-08-13T04:27:10.210Z,94.00
2017-08-13T04:29:37.802Z,94.00
2017-08-13T04:32:05.375Z,94.00
2017-08-13T04:34:32.932Z,94.00
2017-08-13T04:37:00.858Z,94.00
2017-08-13T04:39:28.412Z,94.00
2017-08-13T04:41:55.978Z,94.00
2017-08-13T04:44:23.685Z,94.10
2017-08-13T04:46:51.298Z,94.10
2017-08-13T04:49:18.881Z,94.10
2017-08-13T04:51:46.496Z,94.10
2017-08-13T04:54:14.071Z,94.10
2017-08-13T04:56:41.695Z,94.10
2017-08-13T04:59:09.256Z,94.10
2017-08-13T05:01:37.006Z,94.20
2017-08-13T05:04:04.562Z,94.20
2017-08-13T05:06:32.929Z,94.20
2017-08-13T05:09:01.256Z,94.10
2017-08-13T05:11:29.251Z,94.20
2017-08-13T05:13:57.029Z,94.20
2017-08-13T05:16:24.585Z,94.20
2017-08-13T05:18:52.258Z,94.20
2017-08-13T05:21:19.880Z,94.20
2017-08-13T05:23:47.430Z,94.20
2017-08-13T05:26:15.030Z,94.20
2017-08-13T05:28:42.603Z,94.20
2017-08-13T05:31:10.210Z,94.20
2017-08-13T05:33:37.761Z,94.10
2017-08-13T05:36:05.679Z,94.10
2017-08-13T05:38:33.286Z,94.10
2017-08-13T05:41:00.838Z,94.10
2017-08-13T05:43:28.442Z,94.10
2017-08-13T05:45:56.193Z,94.00
2017-08-13T05:48:23.801Z,94.00
2017-08-13T05:50:51.350Z,94.00
2017-08-13T05:53:19.147Z,94.00
2017-08-13T05:55:46.743Z,94.00
2017-08-13T05:58:14.411Z,94.00
2017-08-13T06:00:41.977Z,94.00
2017-08-13T06:03:09.574Z,94.00
2017-08-13T06:05:37.143Z,94.10
2017-08-13T06:08:04.750Z,94.10
2017-08-13T06:10:32.301Z,94.20
2017-08-13T06:13:00.565Z,94.20
2017-08-13T06:15:28.147Z,94.20
2017-08-13T06:17:55.722Z,94.20
2017-08-13T06:20:23.804Z,94.20
2017-08-13T06:22:51.365Z,94.30
2017-08-13T06:25:18.934Z,94.30
2017-08-13T06:27:46.537Z,94.20
2017-08-13T06:30:14.100Z,94.10
2017-08-13T06:32:42.217Z,94.10
2017-08-13T06:35:09.794Z,94.00
2017-08-13T06:37:37.359Z,94.00
2017-08-13T06:40:05.401Z,93.80
2017-08-13T06:42:32.969Z,93.70
2017-08-13T06:45:00.530Z,93.50
2017-08-13T06:47:28.407Z,93.50
2017-08-13T06:49:55.962Z,93.40
2017-08-13T06:52:24.564Z,93.40
2017-08-13T06:54:53.310Z,93.10
2017-08-13T06:57:20.870Z,93.10
2017-08-13T06:59:48.462Z,92.90
2017-08-13T07:02:16.909Z,92.90
2017-08-13T07:04:44.466Z,92.90
2017-08-13T07:07:12.137Z,92.90
2017-08-13T07:09:39.702Z,92.90
2017-08-13T07:12:07.302Z,92.90
2017-08-13T07:14:35.194Z,92.90
2017-08-13T07:17:03.206Z,92.90
2017-08-13T07:19:30.776Z,92.80
2017-08-13T07:21:58.334Z,92.70
2017-08-13T07:24:26.065Z,92.50
2017-08-13T07:26:53.628Z,92.40
2017-08-13T07:29:21.227Z,92.40
2017-08-13T07:31:48.789Z,92.50
2017-08-13T07:34:16.398Z,92.50
2017-08-13T07:36:43.966Z,92.30
2017-08-13T07:39:11.598Z,92.30
2017-08-13T07:41:39.181Z,92.40
2017-08-13T07:44:06.733Z,92.40
2017-08-13T07:46:34.471Z,92.30
2017-08-13T07:49:02.102Z,92.30
2017-08-13T07:51:29.676Z,92.30
2017-08-13T07:53:57.286Z,92.30
2017-08-13T07:56:24.853Z,92.40
2017-08-13T07:58:52.454Z,92.10
2017-08-13T08:01:20.003Z,91.90
2017-08-13T08:03:47.571Z,91.70
2017-08-13T08:06:15.634Z,91.40
2017-08-13T08:08:43.198Z,91.30
2017-08-13T08:11:11.075Z,91.10
2017-08-13T08:13:38.647Z,91.00
2017-08-13T08:16:07.014Z,91.00
2017-08-13T08:18:39.593Z,90.70
2017-08-13T08:21:07.156Z,90.50
2017-08-13T08:23:34.905Z,90.20
2017-08-13T08:26:02.513Z,90.20
2017-08-13T08:28:30.118Z,90.20
2017-08-13T08:30:57.714Z,90.10
2017-08-13T08:33:25.270Z,90.10
2017-08-13T08:35:53.597Z,89.50
2017-08-13T08:38:21.814Z,89.50
2017-08-13T08:40:49.402Z,88.80
2017-08-13T08:43:16.962Z,88.10
2017-08-13T08:45:44.567Z,87.80
2017-08-13T08:48:12.143Z,87.20
2017-08-13T08:50:39.708Z,87.00
2017-08-13T08:53:07.680Z,86.60
2017-08-13T08:55:35.232Z,85.90
2017-08-13T08:58:02.790Z,85.50
2017-08-13T09:00:30.533Z,84.70
2017-08-13T09:02:58.126Z,84.40
2017-08-13T09:05:25.694Z,84.90
2017-08-13T09:07:54.414Z,84.50
2017-08-13T09:10:22.427Z,83.90
2017-08-13T09:12:49.978Z,83.60
2017-08-13T09:15:17.769Z,82.90
2017-08-13T09:17:45.756Z,82.40
2017-08-13T09:20:13.330Z,81.70
2017-08-13T09:22:40.897Z,81.30
2017-08-13T09:25:13.497Z,80.60
2017-08-13T09:27:41.062Z,80.20
2017-08-13T09:30:08.622Z,79.50
2017-08-13T09:32:36.351Z,79.10
2017-08-13T09:35:03.950Z,79.20
2017-08-13T09:37:31.516Z,79.70
2017-08-13T09:39:59.062Z,80.50
2017-08-13T09:42:26.717Z,80.00
2017-08-13T09:44:54.260Z,79.10
2017-08-13T09:47:21.861Z,78.30
2017-08-13T09:49:49.428Z,77.40
2017-08-13T09:52:16.986Z,77.00
2017-08-13T09:54:44.725Z,76.70
2017-08-13T09:57:12.326Z,76.90
2017-08-13T09:59:39.882Z,76.80
2017-08-13T10:02:07.473Z,76.50
2017-08-13T10:04:35.020Z,76.20
2017-08-13T10:07:03.078Z,75.30
2017-08-13T10:09:30.625Z,75.20
2017-08-13T10:11:58.562Z,75.50
2017-08-13T10:14:31.599Z,75.30
2017-08-13T10:16:59.146Z,74.80
2017-08-13T10:19:26.693Z,74.10
2017-08-13T10:21:54.362Z,74.30
2017-08-13T10:24:25.854Z,74.00
2017-08-13T10:26:53.412Z,73.40
2017-08-13T10:29:21.758Z,73.40
2017-08-13T10:31:49.514Z,72.60
2017-08-13T10:34:17.133Z,72.40
2017-08-13T10:36:45.451Z,72.40
2017-08-13T10:39:13.001Z,72.40
2017-08-13T10:41:40.596Z,72.80
2017-08-13T10:44:08.145Z,73.20
2017-08-13T10:46:35.840Z,72.80
2017-08-13T10:49:03.398Z,73.10
2017-08-13T10:51:30.984Z,72.50
2017-08-13T10:53:58.534Z,72.30
2017-08-13T10:56:26.120Z,70.50
2017-08-13T10:58:53.674Z,70.30
2017-08-13T11:01:21.685Z,68.60
2017-08-13T11:03:49.248Z,68.60
2017-08-13T11:06:16.801Z,68.20
2017-08-13T11:08:44.549Z,67.90
2017-08-13T11:11:12.228Z,67.90
2017-08-13T11:13:39.825Z,67.70
2017-08-13T11:16:08.166Z,68.30
2017-08-13T11:18:36.034Z,68.30
2017-08-13T11:21:03.582Z,68.70
2017-08-13T11:23:31.136Z,68.20
2017-08-13T11:25:59.159Z,67.10
2017-08-13T11:28:26.725Z,67.00
2017-08-13T11:31:00.192Z,67.20
2017-08-13T11:33:27.737Z,67.10
2017-08-13T11:35:55.286Z,66.80
2017-08-13T11:38:22.892Z,66.30
2017-08-13T11:40:51.358Z,66.00
2017-08-13T11:43:18.924Z,66.00
2017-08-13T11:45:46.611Z,65.80
2017-08-13T11:48:14.689Z,65.30
2017-08-13T11:50:42.239Z,65.40
2017-08-13T11:53:09.785Z,64.90
2017-08-13T11:55:38.493Z,62.80
2017-08-13T11:58:06.866Z,62.90
2017-08-13T12:00:34.425Z,62.80
2017-08-13T12:03:02.418Z,62.80
2017-08-13T12:05:29.975Z,62.30
2017-08-13T12:07:57.539Z,62.10
2017-08-13T12:10:25.654Z,62.30
2017-08-13T12:12:53.457Z,62.40
2017-08-13T12:15:21.009Z,62.00
2017-08-13T12:17:49.666Z,61.40
2017-08-13T12:20:17.270Z,61.30
2017-08-13T12:22:44.821Z,60.80
2017-08-13T12:25:13.165Z,60.60
2017-08-13T12:27:40.726Z,60.50
2017-08-13T12:30:08.360Z,60.50
2017-08-13T12:32:35.905Z,60.80
2017-08-13T12:35:03.491Z,61.20
2017-08-13T12:37:31.033Z,61.00
2017-08-13T12:39:58.934Z,60.90
2017-08-13T12:42:26.472Z,61.30
2017-08-13T12:44:54.016Z,60.10
2017-08-13T12:47:26.843Z,59.90
2017-08-13T12:49:54.436Z,59.80
2017-08-13T12:52:22.007Z,59.80
2017-08-13T12:54:49.601Z,59.70
2017-08-13T12:57:17.179Z,58.10
2017-08-13T12:59:44.773Z,58.90
2017-08-13T13:02:13.094Z,58.20
2017-08-13T13:04:40.981Z,58.00
2017-08-13T13:07:13.493Z,58.10
2017-08-13T13:09:42.258Z,57.50
2017-08-13T13:12:14.787Z,57.40
2017-08-13T13:14:42.366Z,56.80
2017-08-13T13:17:10.263Z,55.80
2017-08-13T13:19:37.815Z,55.60
2017-08-13T13:22:05.358Z,55.80
2017-08-13T13:24:34.306Z,55.30
2017-08-13T13:27:03.334Z,54.00
2017-08-13T13:29:30.881Z,54.00
2017-08-13T13:31:58.417Z,54.40
2017-08-13T13:34:29.168Z,54.80
2017-08-13T13:36:56.763Z,54.70
2017-08-13T13:39:24.305Z,54.90
2017-08-13T13:41:52.284Z,54.80
2017-08-13T13:44:19.834Z,54.30
2017-08-13T13:46:47.398Z,54.20
2017-08-13T13:49:15.046Z,54.30
2017-08-13T13:51:42.586Z,54.00
2017-08-13T13:54:10.929Z,53.10
2017-08-13T13:56:38.477Z,53.00
2017-08-13T13:59:06.269Z,52.80
2017-08-13T14:01:34.114Z,52.00
2017-08-13T14:04:01.651Z,51.90
2017-08-13T14:06:29.196Z,51.70
2017-08-13T14:08:57.163Z,51.80
2017-08-13T14:11:24.703Z,51.50
2017-08-13T14:13:52.269Z,51.50
2017-08-13T14:16:19.925Z,50.90
2017-08-13T14:18:47.475Z,50.60
2017-08-13T14:21:15.050Z,50.30
2017-08-13T14:23:43.354Z,49.60
2017-08-13T14:26:11.250Z,49.50
2017-08-13T14:28:39.170Z,49.40
2017-08-13T14:31:06.714Z,50.50
2017-08-13T14:33:35.123Z,50.20
2017-08-13T14:36:02.666Z,50.10
2017-08-13T14:38:34.142Z,50.30
2017-08-13T14:41:01.677Z,50.10
2017-08-13T14:43:29.984Z,49.90
2017-08-13T14:45:57.856Z,49.80
2017-08-13T14:48:25.399Z,49.70
2017-08-13T14:50:52.944Z,49.80
2017-08-13T14:53:21.174Z,49.40
2017-08-13T14:55:48.754Z,49.30
2017-08-13T14:58:17.133Z,49.10
2017-08-13T15:00:44.694Z,48.80
2017-08-13T15:03:12.243Z,48.50
2017-08-13T15:05:40.279Z,48.10
2017-08-13T15:08:07.851Z,47.90
2017-08-13T15:10:35.634Z,47.50
2017-08-13T15:13:03.589Z,47.00
2017-08-13T15:15:31.157Z,47.30
2017-08-13T15:17:58.701Z,47.60
2017-08-13T15:20:26.277Z,47.80
2017-08-13T15:22:53.817Z,48.70
2017-08-13T15:25:21.698Z,48.60
2017-08-13T15:27:49.244Z,48.90
2017-08-13T15:30:16.806Z,49.50
2017-08-13T15:32:45.926Z,50.00
2017-08-13T15:35:13.461Z,50.30
2017-08-13T15:37:41.008Z,50.80
2017-08-13T15:40:08.596Z,50.90
2017-08-13T15:42:36.134Z,51.30
2017-08-13T15:45:03.717Z,51.90
2017-08-13T15:47:31.689Z,51.90
2017-08-13T15:49:59.228Z,51.70
2017-08-13T15:52:26.770Z,51.90
2017-08-13T15:54:54.849Z,51.90
2017-08-13T15:57:22.394Z,51.60
2017-08-13T15:59:49.925Z,52.00
2017-08-13T16:02:18.282Z,52.30
2017-08-13T16:04:45.869Z,52.30
2017-08-13T16:07:14.186Z,52.50
2017-08-13T16:09:42.134Z,51.80
2017-08-13T16:12:09.713Z,51.30
2017-08-13T16:14:37.241Z,51.40
2017-08-13T16:17:09.278Z,51.30
2017-08-13T16:19:36.813Z,51.20
2017-08-13T16:22:04.665Z,51.40
2017-08-13T16:24:32.202Z,51.30
2017-08-13T16:26:59.742Z,51.30
2017-08-13T16:29:27.409Z,51.50
2017-08-13T16:31:55.713Z,51.90
2017-08-13T16:34:23.400Z,51.90
2017-08-13T16:36:50.942Z,52.50
2017-08-13T16:39:18.522Z,52.80
2017-08-13T16:41:46.065Z,53.40
2017-08-13T16:44:13.646Z,53.50
2017-08-13T16:46:41.188Z,53.80
2017-08-13T16:49:08.879Z,53.70
2017-08-13T16:51:36.419Z,54.00
2017-08-13T16:54:03.956Z,54.10
2017-08-13T16:56:31.821Z,54.30
2017-08-13T16:58:59.366Z,54.60
2017-08-13T17:01:26.906Z,54.70
2017-08-13T17:03:54.490Z,54.90
2017-08-13T17:06:22.435Z,55.00
2017-08-13T17:08:49.974Z,55.30
2017-08-13T17:11:17.822Z,55.40
2017-08-13T17:13:45.518Z,55.40
2017-08-13T17:16:13.120Z,55.30
2017-08-13T17:18:40.666Z,55.60
2017-08-13T17:21:08.252Z,55.80
2017-08-13T17:23:35.849Z,56.00
2017-08-13T17:26:03.395Z,56.40
2017-08-13T17:28:30.981Z,56.70
2017-08-13T17:30:58.522Z,56.90
2017-08-13T17:33:26.169Z,57.90
2017-08-13T17:35:53.712Z,57.60
2017-08-13T17:38:21.288Z,57.80
2017-08-13T17:40:48.833Z,58.10
2017-08-13T17:43:16.669Z,58.40
2017-08-13T17:45:44.212Z,58.80
2017-08-13T17:48:11.760Z,58.80
2017-08-13T17:50:39.618Z,59.00
2017-08-13T17:53:07.210Z,59.30
2017-08-13T17:55:34.758Z,59.70
2017-08-13T17:58:02.354Z,60.20
2017-08-13T18:00:29.896Z,60.80
2017-08-13T18:02:57.448Z,60.90
2017-08-13T18:05:30.505Z,60.90
2017-08-13T18:07:58.042Z,61.20
2017-08-13T18:10:25.818Z,61.30
2017-08-13T18:12:53.393Z,61.40
2017-08-13T18:15:20.937Z,61.50
2017-08-13T18:17:48.534Z,61.60
2017-08-13T18:20:16.205Z,61.70
2017-08-13T18:22:44.968Z,62.30
2017-08-13T18:25:12.510Z,62.30
2017-08-13T18:27:40.186Z,62.70
2017-08-13T18:30:07.766Z,63.10
2017-08-13T18:32:35.321Z,63.50
2017-08-13T18:35:03.174Z,63.60
2017-08-13T18:37:30.725Z,64.00
2017-08-13T18:39:58.362Z,64.40
2017-08-13T18:42:26.024Z,64.90
2017-08-13T18:44:53.634Z,65.20
2017-08-13T18:47:21.178Z,65.50
2017-08-13T18:49:49.144Z,65.70
2017-08-13T18:52:16.698Z,65.90
2017-08-13T18:54:44.249Z,66.30
2017-08-13T18:57:11.866Z,66.50
2017-08-13T18:59:39.414Z,66.70
2017-08-13T19:02:06.975Z,66.80
2017-08-13T19:04:35.592Z,67.10
2017-08-13T19:07:03.129Z,67.00
2017-08-13T19:09:30.678Z,67.10
2017-08-13T19:12:02.362Z,67.30
2017-08-13T19:14:29.905Z,67.30
2017-08-13T19:16:58.210Z,67.70
2017-08-13T19:19:26.114Z,67.70
2017-08-13T19:21:53.662Z,68.10
2017-08-13T19:24:21.217Z,68.20
2017-08-13T19:26:49.473Z,68.60
2017-08-13T19:29:17.013Z,68.80
2017-08-13T19:31:44.553Z,69.00
2017-08-13T19:34:12.326Z,69.20
2017-08-13T19:36:40.657Z,69.90
2017-08-13T19:39:08.493Z,69.80
2017-08-13T19:41:36.070Z,70.00
2017-08-13T19:44:03.630Z,70.00
2017-08-13T19:46:31.209Z,70.20
2017-08-13T19:48:58.793Z,70.40
2017-08-13T19:51:26.351Z,70.80
2017-08-13T19:53:54.099Z,70.90
2017-08-13T19:56:23.326Z,71.20
2017-08-13T19:58:50.862Z,71.20
2017-08-13T20:01:18.406Z,71.20
2017-08-13T20:03:46.787Z,71.80
2017-08-13T20:06:14.398Z,71.70
2017-08-13T20:08:42.704Z,72.30
2017-08-13T20:11:10.410Z,72.30
2017-08-13T20:13:37.948Z,72.40
2017-08-13T20:16:05.537Z,72.70
2017-08-13T20:18:33.093Z,72.90
2017-08-13T20:21:00.961Z,73.20
2017-08-13T20:23:28.512Z,73.40
2017-08-13T20:25:56.063Z,73.60
2017-08-13T20:28:23.945Z,73.60
2017-08-13T20:30:51.493Z,73.70
2017-08-13T20:33:19.366Z,73.80
2017-08-13T20:35:46.904Z,74.00
2017-08-13T20:38:14.445Z,74.30
2017-08-13T20:40:42.465Z,74.50
2017-08-13T20:43:10.001Z,74.70
2017-08-13T20:45:37.536Z,74.90
2017-08-13T20:48:10.361Z,75.10
2017-08-13T20:50:37.905Z,75.40
2017-08-13T20:53:05.450Z,75.60
2017-08-13T20:55:33.034Z,75.80
2017-08-13T20:58:00.584Z,76.00
2017-08-13T21:00:28.470Z,76.20
2017-08-13T21:02:56.010Z,76.40
2017-08-13T21:05:23.558Z,76.40
2017-08-13T21:07:51.150Z,76.40
2017-08-13T21:10:19.223Z,76.50
2017-08-13T21:12:46.790Z,76.70
2017-08-13T21:15:14.337Z,76.80
2017-08-13T21:17:42.029Z,76.80
2017-08-13T21:20:09.571Z,76.90
2017-08-13T21:22:37.115Z,76.90
2017-08-13T21:25:04.697Z,77.00
2017-08-13T21:27:32.606Z,77.10
2017-08-13T21:30:00.187Z,77.30
2017-08-13T21:32:27.823Z,77.40
2017-08-13T21:34:55.370Z,77.60
2017-08-13T21:37:23.801Z,77.90
2017-08-13T21:39:51.670Z,77.90
2017-08-13T21:42:19.223Z,78.10
2017-08-13T21:44:46.766Z,78.20
2017-08-13T21:47:14.413Z,78.30
2017-08-13T21:49:41.958Z,78.40
2017-08-13T21:52:09.539Z,78.40
2017-08-13T21:54:37.078Z,78.50
2017-08-13T21:57:05.602Z,78.70
2017-08-13T21:59:33.140Z,78.60
2017-08-13T22:02:00.726Z,78.80
2017-08-13T22:04:28.265Z,78.90
2017-08-13T22:06:55.810Z,79.10
2017-08-13T22:09:24.155Z,79.40
2017-08-13T22:11:51.753Z,79.40
2017-08-13T22:14:20.392Z,79.40
2017-08-13T22:16:47.934Z,79.40
2017-08-13T22:19:15.517Z,79.60
2017-08-13T22:21:43.097Z,79.80
2017-08-13T22:24:10.839Z,80.00
2017-08-13T22:26:38.379Z,80.20
2017-08-13T22:29:06.318Z,80.20
2017-08-13T22:31:34.027Z,80.20
2017-08-13T22:34:01.588Z,80.00
2017-08-13T22:36:29.174Z,80.20
2017-08-13T22:38:56.730Z,80.30
2017-08-13T22:41:24.701Z,80.40
2017-08-13T22:43:52.247Z,80.80
2017-08-13T22:46:19.790Z,81.10
2017-08-13T22:48:47.864Z,81.50
2017-08-13T22:51:15.462Z,81.60
2017-08-13T22:53:43.770Z,81.60
2017-08-13T22:56:11.505Z,81.50
2017-08-13T22:58:39.817Z,81.80
2017-08-13T23:01:08.152Z,81.70
2017-08-13T23:03:41.931Z,81.60
2017-08-13T23:06:09.470Z,81.50
2017-08-13T23:08:37.363Z,81.20
2017-08-13T23:11:04.894Z,80.90
2017-08-13T23:13:32.442Z,80.90
2017-08-13T23:16:00.021Z,80.90
2017-08-13T23:18:27.755Z,81.10
2017-08-13T23:20:55.309Z,81.10
2017-08-13T23:23:22.853Z,81.00
2017-08-13T23:25:51.604Z,81.20
2017-08-13T23:28:19.309Z,81.20
2017-08-13T23:30:47.637Z,81.40
2017-08-13T23:33:15.221Z,81.30
2017-08-13T23:35:47.892Z,81.40
2017-08-13T23:38:15.434Z,81.40
2017-08-13T23:40:42.984Z,81.30
2017-08-13T23:43:10.645Z,81.20
2017-08-13T23:45:38.261Z,81.20
2017-08-13T23:48:05.805Z,81.20
2017-08-13T23:50:33.345Z,81.30
2017-08-13T23:53:00.993Z,81.30
2017-08-13T23:55:28.532Z,81.40
2017-08-13T23:57:56.142Z,81.40
